Atlantic, Pennsylvania
Current Conditions -  °F | °C
As of 11:11 AM on Thursday 29 Jan 2015 (Local Time) from KGKJ Reporting Station
Unknown Precip Unknown Precip  
Wind Chill: 26°   Ceiling: 2800
Heat Index: 32°   Visibility: 6mi
Dew Point: 11°   Wind: 6mph
Humidity: 42%   Direction: NA
Pressure: 29.84"   Gusts: 17mph
Location:  41.5°N, 80.33°W
Report Text: KGKJ 291611Z AUTO VRB05G15KT 6SM UP BKN028 OVC050 00/M12 A2984 RMK AO2 UPB03 P0000 T00001117 TSNO
Loading
Personal Weather Stations






























Interactive Weather Map New forecast layout! Learn more

10-Day Weather Forecast

Advertisements
Track Severe Weather on mobile